Time;durP1;ratioP1;P1;durP2;ratioP2;P2;SDS_P1;SDS_P2;PMS_P1;PMS_P2;Temp;Humidity;BMP_temperature;BMP_pressure;BME280_temperature;BME280_humidity;BME280_pressure;Samples;Min_cycle;Max_cycle;Signal;HPM_P1;HPM_P2
2021/10/18 00:00:46;;;;;;;21.70;11.40;;;;;;;;;;4939397;28;20055;-65
2021/10/18 00:03:12;;;;;;;17.40;11.70;;;;;;;;;;4942423;28;20044;-65
2021/10/18 00:05:37;;;;;;;20.00;10.68;;;;;;;;;;4941855;28;20066;-65
2021/10/18 00:08:02;;;;;;;19.70;11.45;;;;;;;;;;4947202;28;20038;-65
2021/10/18 00:10:27;;;;;;;18.38;11.73;;;;;;;;;;4947413;28;20098;-65
2021/10/18 00:12:54;;;;;;;22.17;11.45;;;;;;;;;;4946633;28;20505;-64
2021/10/18 00:15:20;;;;;;;17.98;11.50;;;;;;;;;;4935629;28;20127;-64
2021/10/18 00:17:45;;;;;;;18.23;11.85;;;;;;;;;;4948189;28;20118;-65
2021/10/18 00:20:11;;;;;;;19.42;12.68;;;;;;;;;;4940545;28;20031;-65
2021/10/18 00:22:36;;;;;;;22.80;13.38;;;;;;;;;;4947332;28;20020;-65
2021/10/18 00:25:02;;;;;;;18.50;13.48;;;;;;;;;;4941270;28;20050;-65
2021/10/18 00:27:27;;;;;;;21.17;13.15;;;;;;;;;;4936862;28;20063;-65
2021/10/18 00:29:52;;;;;;;20.30;13.25;;;;;;;;;;4946924;28;20094;-64
2021/10/18 00:32:17;;;;;;;22.95;13.18;;;;;;;;;;4943187;28;20083;-64
2021/10/18 00:34:43;;;;;;;18.20;12.10;;;;;;;;;;4939922;28;20028;-64
2021/10/18 00:37:08;;;;;;;21.67;13.50;;;;;;;;;;4940361;28;20110;-65
2021/10/18 00:39:33;;;;;;;18.92;12.60;;;;;;;;;;4946249;28;20043;-64
2021/10/18 00:41:58;;;;;;;21.08;13.32;;;;;;;;;;4946240;28;20055;-65
2021/10/18 00:44:23;;;;;;;21.98;13.88;;;;;;;;;;4943452;28;20027;-64
2021/10/18 00:46:49;;;;;;;21.05;13.48;;;;;;;;;;4944964;28;20032;-65
2021/10/18 00:49:14;;;;;;;18.73;12.02;;;;;;;;;;4942846;28;20541;-64
2021/10/18 00:51:39;;;;;;;19.02;12.68;;;;;;;;;;4941088;28;20155;-64
2021/10/18 00:54:04;;;;;;;28.13;14.15;;;;;;;;;;4946069;28;20064;-65
2021/10/18 00:56:30;;;;;;;22.45;13.65;;;;;;;;;;4940822;28;20047;-64
2021/10/18 00:58:55;;;;;;;18.70;13.30;;;;;;;;;;4956975;28;20502;-64
2021/10/18 01:01:21;;;;;;;17.67;11.70;;;;;;;;;;4945720;28;20039;-63
2021/10/18 01:03:46;;;;;;;22.55;12.20;;;;;;;;;;4937896;28;20027;-63
2021/10/18 01:06:11;;;;;;;20.33;13.00;;;;;;;;;;4946407;28;20387;-63
2021/10/18 01:08:36;;;;;;;25.67;13.60;;;;;;;;;;4946491;28;20039;-65
2021/10/18 01:11:02;;;;;;;25.80;14.52;;;;;;;;;;4942507;28;20074;-63
2021/10/18 01:13:28;;;;;;;21.73;13.07;;;;;;;;;;4940710;28;20050;-64
2021/10/18 01:15:53;;;;;;;23.50;13.35;;;;;;;;;;4941176;28;20032;-63
2021/10/18 01:18:18;;;;;;;22.52;14.15;;;;;;;;;;4943747;28;20076;-63
2021/10/18 01:20:44;;;;;;;27.75;14.25;;;;;;;;;;4937794;28;20401;-64
2021/10/18 01:23:09;;;;;;;23.60;13.27;;;;;;;;;;4942038;28;20027;-63
2021/10/18 01:25:35;;;;;;;23.33;13.02;;;;;;;;;;4942825;28;20039;-63
2021/10/18 01:28:00;;;;;;;42.05;16.10;;;;;;;;;;4936956;29;20106;-64
2021/10/18 01:30:25;;;;;;;43.67;16.85;;;;;;;;;;4952058;28;20127;-63
2021/10/18 01:32:51;;;;;;;33.25;15.35;;;;;;;;;;4946473;28;20037;-64
2021/10/18 01:35:16;;;;;;;36.08;15.20;;;;;;;;;;4939951;28;20032;-64
2021/10/18 01:37:41;;;;;;;36.25;16.50;;;;;;;;;;4943660;28;20035;-63
2021/10/18 01:40:07;;;;;;;22.88;12.55;;;;;;;;;;4940687;28;20063;-63
2021/10/18 01:42:32;;;;;;;23.85;13.15;;;;;;;;;;4942057;28;20035;-64
2021/10/18 01:44:57;;;;;;;21.92;13.02;;;;;;;;;;4946482;29;20039;-63
2021/10/18 01:47:26;;;;;;;28.67;13.77;;;;;;;;;;4944504;28;20360;-64
2021/10/18 01:49:51;;;;;;;24.42;13.27;;;;;;;;;;4940864;28;20115;-63
2021/10/18 01:52:17;;;;;;;28.92;13.32;;;;;;;;;;4945833;28;20142;-63
2021/10/18 01:54:42;;;;;;;29.08;14.20;;;;;;;;;;4939143;28;20081;-63
2021/10/18 01:57:07;;;;;;;24.55;14.02;;;;;;;;;;4937902;28;20090;-63
2021/10/18 01:59:32;;;;;;;18.50;12.32;;;;;;;;;;4941531;29;20039;-63
2021/10/18 02:01:57;;;;;;;18.55;12.75;;;;;;;;;;4939107;28;20039;-63
2021/10/18 02:04:23;;;;;;;22.77;12.75;;;;;;;;;;4943733;28;20031;-63
2021/10/18 02:06:48;;;;;;;22.30;13.15;;;;;;;;;;4938907;28;20031;-63
2021/10/18 02:09:13;;;;;;;27.35;15.85;;;;;;;;;;4949294;28;20031;-63
2021/10/18 02:11:38;;;;;;;28.55;15.25;;;;;;;;;;4946481;28;20023;-63
2021/10/18 02:14:03;;;;;;;23.90;14.05;;;;;;;;;;4948164;29;20090;-63
2021/10/18 02:16:29;;;;;;;22.38;13.32;;;;;;;;;;4946720;28;20035;-63
2021/10/18 02:18:54;;;;;;;22.77;11.88;;;;;;;;;;4961129;28;20034;-63
2021/10/18 02:21:19;;;;;;;20.35;12.27;;;;;;;;;;4941977;28;20576;-63
2021/10/18 02:23:44;;;;;;;25.33;12.85;;;;;;;;;;4947862;29;20038;-65
2021/10/18 02:26:10;;;;;;;23.33;12.68;;;;;;;;;;4949377;28;20045;-64
2021/10/18 02:28:35;;;;;;;19.70;12.00;;;;;;;;;;4948962;28;20031;-63
2021/10/18 02:31:00;;;;;;;17.98;12.13;;;;;;;;;;4948610;28;20613;-63
2021/10/18 02:33:25;;;;;;;19.38;12.00;;;;;;;;;;4949004;28;20533;-63
2021/10/18 02:35:51;;;;;;;24.30;12.07;;;;;;;;;;4944869;28;20054;-63
2021/10/18 02:38:16;;;;;;;17.85;11.57;;;;;;;;;;4943800;29;20040;-63
2021/10/18 02:40:41;;;;;;;19.17;12.75;;;;;;;;;;4946208;28;20556;-63
2021/10/18 02:43:06;;;;;;;20.40;11.95;;;;;;;;;;4938469;28;20093;-63
2021/10/18 02:45:31;;;;;;;17.73;10.95;;;;;;;;;;4940253;28;20051;-63
2021/10/18 02:47:57;;;;;;;18.17;10.85;;;;;;;;;;4961324;28;20038;-63
2021/10/18 02:50:22;;;;;;;21.58;12.25;;;;;;;;;;4948613;28;20138;-63
2021/10/18 02:52:47;;;;;;;23.38;13.05;;;;;;;;;;4936659;28;20028;-63
2021/10/18 02:55:12;;;;;;;20.08;12.20;;;;;;;;;;4943686;28;20044;-63
2021/10/18 02:57:38;;;;;;;25.60;14.15;;;;;;;;;;4946638;29;20022;-63
2021/10/18 03:00:03;;;;;;;25.40;13.55;;;;;;;;;;4944130;28;20035;-63
2021/10/18 03:02:28;;;;;;;23.95;14.05;;;;;;;;;;4948338;28;20023;-63
2021/10/18 03:04:54;;;;;;;27.90;13.82;;;;;;;;;;4947886;28;20066;-63
2021/10/18 03:07:19;;;;;;;25.58;14.80;;;;;;;;;;4937327;28;20043;-63
2021/10/18 03:09:44;;;;;;;27.02;15.02;;;;;;;;;;4941319;28;20015;-63
2021/10/18 03:12:09;;;;;;;29.40;14.23;;;;;;;;;;4944465;28;20126;-63
2021/10/18 03:14:34;;;;;;;29.50;15.95;;;;;;;;;;4948198;28;20109;-64
2021/10/18 03:17:00;;;;;;;26.98;14.80;;;;;;;;;;4946004;28;20428;-63
2021/10/18 03:19:25;;;;;;;23.55;13.20;;;;;;;;;;4942501;28;20060;-63
2021/10/18 03:21:50;;;;;;;17.67;11.27;;;;;;;;;;4946016;28;20043;-63
2021/10/18 03:24:15;;;;;;;22.23;11.98;;;;;;;;;;4939306;28;20067;-63
2021/10/18 03:26:41;;;;;;;19.02;12.00;;;;;;;;;;4945834;28;20421;-63
2021/10/18 03:29:06;;;;;;;21.55;10.77;;;;;;;;;;4947272;28;20045;-63
2021/10/18 03:31:31;;;;;;;17.63;11.05;;;;;;;;;;4950914;28;20636;-62
2021/10/18 03:33:56;;;;;;;18.27;11.13;;;;;;;;;;4940314;28;20035;-63
2021/10/18 03:36:21;;;;;;;21.15;11.18;;;;;;;;;;4947950;28;20046;-63
2021/10/18 03:38:47;;;;;;;19.50;11.70;;;;;;;;;;4942596;28;20042;-63
2021/10/18 03:41:12;;;;;;;17.77;10.90;;;;;;;;;;4947295;28;20126;-63
2021/10/18 03:43:37;;;;;;;19.40;11.50;;;;;;;;;;4942870;28;20035;-63
2021/10/18 03:46:02;;;;;;;18.73;11.82;;;;;;;;;;4947437;28;20031;-62
2021/10/18 03:48:27;;;;;;;23.30;12.02;;;;;;;;;;4940658;28;20742;-62
2021/10/18 03:50:53;;;;;;;25.50;12.68;;;;;;;;;;4947450;28;20449;-64
2021/10/18 03:53:19;;;;;;;23.50;13.93;;;;;;;;;;4947512;28;20042;-62
2021/10/18 03:55:44;;;;;;;25.05;13.07;;;;;;;;;;4947581;28;20124;-62
2021/10/18 03:58:10;;;;;;;21.77;13.40;;;;;;;;;;4947102;28;20043;-62
2021/10/18 04:00:35;;;;;;;21.73;13.57;;;;;;;;;;4941661;28;20055;-62
2021/10/18 04:03:00;;;;;;;22.90;13.00;;;;;;;;;;4950084;28;20051;-62
2021/10/18 04:05:25;;;;;;;22.52;13.68;;;;;;;;;;4938285;28;20130;-62
2021/10/18 04:07:50;;;;;;;21.58;12.50;;;;;;;;;;4946781;28;20073;-64
2021/10/18 04:10:17;;;;;;;21.70;11.45;;;;;;;;;;4936627;28;20032;-62
2021/10/18 04:12:43;;;;;;;19.00;11.77;;;;;;;;;;4942067;28;20039;-63
2021/10/18 04:15:08;;;;;;;22.27;12.63;;;;;;;;;;4943012;28;20042;-63
2021/10/18 04:17:34;;;;;;;21.42;12.68;;;;;;;;;;4940066;28;20158;-63
2021/10/18 04:19:59;;;;;;;26.60;13.27;;;;;;;;;;4947042;28;20070;-63
2021/10/18 04:22:24;;;;;;;22.92;12.38;;;;;;;;;;4947472;28;20024;-63
2021/10/18 04:24:50;;;;;;;22.58;12.95;;;;;;;;;;4939882;28;20062;-63
2021/10/18 04:27:15;;;;;;;21.60;12.68;;;;;;;;;;4946024;28;20043;-63
2021/10/18 04:29:41;;;;;;;22.67;12.80;;;;;;;;;;4946767;28;20031;-63
2021/10/18 04:32:06;;;;;;;19.73;12.63;;;;;;;;;;4941573;28;20035;-63
2021/10/18 04:34:31;;;;;;;17.13;11.10;;;;;;;;;;4946470;28;20031;-63
2021/10/18 04:36:56;;;;;;;17.40;10.95;;;;;;;;;;4937505;28;20036;-63
2021/10/18 04:39:22;;;;;;;18.40;10.45;;;;;;;;;;4943972;29;20047;-63
2021/10/18 04:41:47;;;;;;;16.83;10.20;;;;;;;;;;4944738;28;20027;-63
2021/10/18 04:44:12;;;;;;;16.27;9.80;;;;;;;;;;4947229;28;20144;-63
2021/10/18 04:46:38;;;;;;;16.58;10.65;;;;;;;;;;4936646;28;20043;-63
2021/10/18 04:49:03;;;;;;;19.98;11.90;;;;;;;;;;4936372;28;20043;-62
2021/10/18 04:51:28;;;;;;;19.73;11.15;;;;;;;;;;4947776;28;20166;-64
2021/10/18 04:53:53;;;;;;;15.68;10.70;;;;;;;;;;4944337;28;20363;-62
2021/10/18 04:56:19;;;;;;;16.90;10.55;;;;;;;;;;4946796;28;20565;-63
2021/10/18 04:58:44;;;;;;;17.52;11.05;;;;;;;;;;4939598;28;20106;-62
2021/10/18 05:01:09;;;;;;;22.35;11.25;;;;;;;;;;4941670;28;20802;-63
2021/10/18 05:03:34;;;;;;;21.10;12.25;;;;;;;;;;4941115;28;20031;-63
2021/10/18 05:05:59;;;;;;;20.67;12.00;;;;;;;;;;4945932;28;20532;-63
2021/10/18 05:08:25;;;;;;;24.30;13.88;;;;;;;;;;4944719;28;20054;-63
2021/10/18 05:10:50;;;;;;;23.48;13.15;;;;;;;;;;4951081;28;20133;-63
2021/10/18 05:13:15;;;;;;;24.17;14.18;;;;;;;;;;4947065;28;20134;-63
2021/10/18 05:15:41;;;;;;;20.55;13.30;;;;;;;;;;4946105;28;20035;-63
2021/10/18 05:18:06;;;;;;;23.95;12.20;;;;;;;;;;4942040;28;20131;-64
2021/10/18 05:20:32;;;;;;;22.50;11.95;;;;;;;;;;4940253;28;20035;-64
2021/10/18 05:22:57;;;;;;;16.75;10.48;;;;;;;;;;4947648;28;20034;-64
2021/10/18 05:25:22;;;;;;;21.90;10.77;;;;;;;;;;4949263;28;20126;-63
2021/10/18 05:27:47;;;;;;;16.67;9.88;;;;;;;;;;4952035;28;20038;-63
2021/10/18 05:30:13;;;;;;;26.70;10.73;;;;;;;;;;4945886;28;20530;-63
2021/10/18 05:32:38;;;;;;;23.77;10.13;;;;;;;;;;4950615;28;20492;-63
2021/10/18 05:35:03;;;;;;;23.33;11.57;;;;;;;;;;4941108;28;20734;-63
2021/10/18 05:37:29;;;;;;;21.85;10.18;;;;;;;;;;4942997;28;20042;-63
2021/10/18 05:39:54;;;;;;;12.30;7.95;;;;;;;;;;4946203;28;20066;-63
2021/10/18 05:42:19;;;;;;;18.45;10.82;;;;;;;;;;4949990;28;20931;-63
2021/10/18 05:44:45;;;;;;;22.45;11.32;;;;;;;;;;4950415;28;20023;-64
2021/10/18 05:47:10;;;;;;;28.45;12.20;;;;;;;;;;4942090;28;20039;-63
2021/10/18 05:49:36;;;;;;;19.17;11.60;;;;;;;;;;4946725;29;20055;-63
2021/10/18 05:52:02;;;;;;;24.92;10.48;;;;;;;;;;4944088;28;20537;-63
2021/10/18 05:54:27;;;;;;;19.90;9.88;;;;;;;;;;4946139;29;20042;-63
2021/10/18 05:56:52;;;;;;;17.35;9.20;;;;;;;;;;4946831;28;20047;-63
2021/10/18 05:59:18;;;;;;;14.80;6.72;;;;;;;;;;4945981;28;20027;-63
2021/10/18 06:01:43;;;;;;;11.80;7.20;;;;;;;;;;4948762;28;20051;-64
2021/10/18 06:04:08;;;;;;;10.15;6.68;;;;;;;;;;4946859;29;20529;-63
2021/10/18 06:06:35;;;;;;;9.23;6.35;;;;;;;;;;4948815;28;20039;-63
2021/10/18 06:09:00;;;;;;;9.45;6.22;;;;;;;;;;4947774;28;20041;-63
2021/10/18 06:11:26;;;;;;;10.73;6.47;;;;;;;;;;4943977;28;20379;-63
2021/10/18 06:13:51;;;;;;;14.90;9.70;;;;;;;;;;4947100;28;20418;-63
2021/10/18 06:16:16;;;;;;;25.15;12.63;;;;;;;;;;4945522;28;20035;-63
2021/10/18 06:18:41;;;;;;;14.68;8.40;;;;;;;;;;4958273;28;20035;-64
2021/10/18 06:21:07;;;;;;;13.52;8.48;;;;;;;;;;4940294;28;20094;-63
2021/10/18 06:23:32;;;;;;;11.23;7.30;;;;;;;;;;4948940;28;20401;-63
2021/10/18 06:25:57;;;;;;;18.70;9.43;;;;;;;;;;4946243;28;20418;-63
2021/10/18 06:28:22;;;;;;;15.25;9.32;;;;;;;;;;4939098;28;20066;-64
2021/10/18 06:30:48;;;;;;;17.10;8.68;;;;;;;;;;4943540;28;20123;-63
2021/10/18 06:33:13;;;;;;;14.50;8.48;;;;;;;;;;4923354;29;20063;-63
2021/10/18 06:35:38;;;;;;;16.08;7.25;;;;;;;;;;4934001;28;20081;-63
2021/10/18 06:38:10;;;;;;;12.60;7.68;;;;;;;;;;4932516;28;20528;-63
2021/10/18 06:40:35;;;;;;;9.95;7.47;;;;;;;;;;4945791;28;20133;-63
2021/10/18 06:43:01;;;;;;;9.75;7.22;;;;;;;;;;4948585;28;20134;-63
2021/10/18 06:45:26;;;;;;;10.93;7.45;;;;;;;;;;4946638;28;20031;-63
2021/10/18 06:47:51;;;;;;;9.95;6.82;;;;;;;;;;4952979;28;20042;-63
2021/10/18 06:50:17;;;;;;;9.63;7.05;;;;;;;;;;4944898;28;20390;-64
2021/10/18 06:52:43;;;;;;;9.48;6.22;;;;;;;;;;4948090;28;20066;-64
2021/10/18 06:55:10;;;;;;;10.55;6.85;;;;;;;;;;4936022;28;20023;-64
2021/10/18 06:57:35;;;;;;;8.02;5.68;;;;;;;;;;4944574;28;20025;-64
2021/10/18 07:00:01;;;;;;;8.27;5.78;;;;;;;;;;4949749;28;20034;-64
2021/10/18 07:02:26;;;;;;;8.73;5.88;;;;;;;;;;4941397;28;20058;-64
2021/10/18 07:04:51;;;;;;;8.80;5.40;;;;;;;;;;4942617;28;20050;-64
2021/10/18 07:07:17;;;;;;;14.93;7.88;;;;;;;;;;4942139;28;20537;-64
2021/10/18 07:09:43;;;;;;;8.55;5.95;;;;;;;;;;4945123;28;20038;-63
2021/10/18 07:12:08;;;;;;;22.20;10.00;;;;;;;;;;4945192;28;20409;-63
2021/10/18 07:14:34;;;;;;;25.35;10.70;;;;;;;;;;4947934;28;20047;-63
2021/10/18 07:16:59;;;;;;;17.33;8.75;;;;;;;;;;4945203;28;20076;-63
2021/10/18 07:19:24;;;;;;;10.20;7.50;;;;;;;;;;4938634;28;20050;-63
2021/10/18 07:21:49;;;;;;;10.93;5.20;;;;;;;;;;4938895;28;20039;-63
2021/10/18 07:24:17;;;;;;;9.18;6.22;;;;;;;;;;4948604;28;20027;-63
2021/10/18 07:26:42;;;;;;;9.70;5.70;;;;;;;;;;4945145;28;20390;-63
2021/10/18 07:29:07;;;;;;;10.70;5.45;;;;;;;;;;4942786;28;20031;-63
2021/10/18 07:31:32;;;;;;;9.85;6.30;;;;;;;;;;4946019;28;20047;-63
2021/10/18 07:34:02;;;;;;;12.32;7.65;;;;;;;;;;4943679;28;20603;-63
2021/10/18 07:36:28;;;;;;;16.40;8.27;;;;;;;;;;4940653;28;20035;-64
2021/10/18 07:38:55;;;;;;;12.82;7.38;;;;;;;;;;4943297;28;20042;-63
2021/10/18 07:41:20;;;;;;;10.32;7.28;;;;;;;;;;4947357;28;20398;-64
2021/10/18 07:43:45;;;;;;;17.52;8.27;;;;;;;;;;4947359;28;20034;-64
2021/10/18 07:46:11;;;;;;;13.07;8.45;;;;;;;;;;4942805;28;20039;-64
2021/10/18 07:48:36;;;;;;;17.13;9.10;;;;;;;;;;4946717;28;20027;-62
2021/10/18 07:51:02;;;;;;;19.75;9.88;;;;;;;;;;4947096;28;20106;-64
2021/10/18 07:53:27;;;;;;;17.65;9.85;;;;;;;;;;4947961;28;20031;-62
2021/10/18 07:55:52;;;;;;;15.90;9.13;;;;;;;;;;4941616;28;20735;-62
2021/10/18 07:58:17;;;;;;;15.82;8.95;;;;;;;;;;4947759;28;20521;-64
2021/10/18 08:00:42;;;;;;;18.83;8.27;;;;;;;;;;4957310;28;20620;-62
2021/10/18 08:03:08;;;;;;;13.93;8.95;;;;;;;;;;4945992;28;20729;-63
2021/10/18 08:05:33;;;;;;;17.90;9.65;;;;;;;;;;4953898;28;20466;-62
2021/10/18 08:07:58;;;;;;;17.85;9.60;;;;;;;;;;4952021;28;20517;-62
2021/10/18 08:10:23;;;;;;;19.38;9.95;;;;;;;;;;4940772;28;20513;-64
2021/10/18 08:12:52;;;;;;;17.70;9.38;;;;;;;;;;4940510;28;20582;-64
2021/10/18 08:15:18;;;;;;;15.25;8.93;;;;;;;;;;4943810;28;20038;-63
2021/10/18 08:17:43;;;;;;;14.40;8.88;;;;;;;;;;4945773;28;20032;-64
2021/10/18 08:20:09;;;;;;;15.13;8.88;;;;;;;;;;4945033;28;20038;-63
2021/10/18 08:22:34;;;;;;;15.23;8.85;;;;;;;;;;4945504;28;20023;-63
2021/10/18 08:24:59;;;;;;;14.90;8.90;;;;;;;;;;4935174;28;20028;-63
2021/10/18 08:27:25;;;;;;;15.70;8.55;;;;;;;;;;4940247;28;20459;-63
2021/10/18 08:29:50;;;;;;;18.13;8.88;;;;;;;;;;4946194;28;20027;-63
2021/10/18 08:32:15;;;;;;;9.43;6.82;;;;;;;;;;4950641;28;20026;-63
2021/10/18 08:34:40;;;;;;;13.70;6.85;;;;;;;;;;4935622;28;20461;-63
2021/10/18 08:37:05;;;;;;;11.43;7.57;;;;;;;;;;4946380;28;20593;-63
2021/10/18 08:42:21;;;;;;;9.85;6.38;;;;;;;;;;4945629;28;20555;-63
2021/10/18 08:44:48;;;;;;;10.43;7.50;;;;;;;;;;4943625;28;20059;-64
2021/10/18 08:47:13;;;;;;;10.23;7.03;;;;;;;;;;4941276;28;20047;-63
2021/10/18 08:49:38;;;;;;;11.95;7.70;;;;;;;;;;4945965;28;20019;-63
2021/10/18 08:52:05;;;;;;;9.88;7.03;;;;;;;;;;4942775;28;20058;-63
2021/10/18 08:54:30;;;;;;;14.27;7.18;;;;;;;;;;4945669;28;20343;-64
2021/10/18 08:56:56;;;;;;;11.20;7.00;;;;;;;;;;4944853;28;20042;-63
2021/10/18 08:59:23;;;;;;;11.07;7.72;;;;;;;;;;4942988;28;20059;-63
2021/10/18 09:01:49;;;;;;;10.32;7.28;;;;;;;;;;4942023;28;20038;-63
2021/10/18 09:04:17;;;;;;;10.68;7.20;;;;;;;;;;4946699;28;20023;-63
2021/10/18 09:06:43;;;;;;;10.48;7.68;;;;;;;;;;4941217;28;20031;-64
2021/10/18 09:09:08;;;;;;;11.43;7.70;;;;;;;;;;4943867;29;20019;-63
2021/10/18 09:11:34;;;;;;;15.02;8.77;;;;;;;;;;4945507;28;20509;-63
2021/10/18 09:13:59;;;;;;;12.55;8.73;;;;;;;;;;4945708;28;20129;-63
2021/10/18 09:16:25;;;;;;;13.63;8.95;;;;;;;;;;4943207;28;20138;-64
2021/10/18 09:19:10;;;;;;;12.95;9.38;;;;;;;;;;4945358;28;20067;-64
2021/10/18 09:21:36;;;;;;;15.77;9.75;;;;;;;;;;4934508;28;20499;-63
2021/10/18 09:24:02;;;;;;;14.68;9.50;;;;;;;;;;4946681;28;20034;-63
2021/10/18 09:26:28;;;;;;;14.45;9.82;;;;;;;;;;4943964;28;20478;-63
2021/10/18 09:28:54;;;;;;;20.23;12.52;;;;;;;;;;4940387;28;20037;-63
2021/10/18 09:31:19;;;;;;;18.25;12.18;;;;;;;;;;4940471;28;20040;-63
2021/10/18 09:33:49;;;;;;;21.77;12.98;;;;;;;;;;4940624;28;20028;-63
2021/10/18 09:36:19;;;;;;;20.05;12.90;;;;;;;;;;4939836;28;20046;-63
2021/10/18 09:38:44;;;;;;;21.37;12.87;;;;;;;;;;4945289;28;20063;-64
2021/10/18 09:41:09;;;;;;;21.50;13.60;;;;;;;;;;4944434;28;20309;-64
2021/10/18 09:43:38;;;;;;;22.30;14.27;;;;;;;;;;4946318;28;20110;-64
2021/10/18 10:53:26;;;;;;;22.38;12.77;;;;;;;;;;4938682;28;20035;-63
2021/10/18 10:55:52;;;;;;;23.25;12.52;;;;;;;;;;4944056;28;20554;-63
2021/10/18 10:58:30;;;;;;;21.10;13.02;;;;;;;;;;4944423;29;20042;-63
2021/10/18 11:00:55;;;;;;;21.00;12.13;;;;;;;;;;4948261;28;20480;-64
2021/10/18 11:03:20;;;;;;;19.73;12.63;;;;;;;;;;4947783;28;20106;-63
2021/10/18 11:05:55;;;;;;;19.42;12.68;;;;;;;;;;4940867;28;20043;-63
2021/10/18 11:08:30;;;;;;;20.85;12.52;;;;;;;;;;4948814;28;20034;-63
2021/10/18 11:10:55;;;;;;;21.15;11.65;;;;;;;;;;4942457;28;20134;-63
2021/10/18 11:13:20;;;;;;;21.63;12.57;;;;;;;;;;4947710;28;20070;-63
2021/10/18 11:15:45;;;;;;;22.48;12.32;;;;;;;;;;4943517;28;20067;-63
2021/10/18 11:18:15;;;;;;;17.80;11.90;;;;;;;;;;4948068;28;20226;-63
2021/10/18 11:20:40;;;;;;;21.02;13.00;;;;;;;;;;4947810;28;20043;-63
2021/10/18 11:23:05;;;;;;;20.20;12.20;;;;;;;;;;4945849;28;20082;-63
2021/10/18 11:25:33;;;;;;;21.20;12.85;;;;;;;;;;4949764;28;20058;-63
2021/10/18 11:27:59;;;;;;;22.55;13.30;;;;;;;;;;4936071;29;20604;-63
2021/10/18 11:30:27;;;;;;;21.52;13.20;;;;;;;;;;4938966;28;20063;-64
2021/10/18 11:32:59;;;;;;;21.00;12.50;;;;;;;;;;4945021;28;20035;-63
2021/10/18 11:35:24;;;;;;;22.58;13.52;;;;;;;;;;4942920;28;20062;-63
2021/10/18 11:37:49;;;;;;;24.25;12.35;;;;;;;;;;4948368;28;20069;-64
2021/10/18 11:40:15;;;;;;;23.45;13.65;;;;;;;;;;4941344;28;20043;-64
2021/10/18 11:43:01;;;;;;;22.90;13.93;;;;;;;;;;4943519;28;20454;-63
2021/10/18 11:45:27;;;;;;;22.88;14.07;;;;;;;;;;4942323;28;20063;-63
2021/10/18 11:47:52;;;;;;;21.70;12.55;;;;;;;;;;4937828;28;20379;-63
2021/10/18 11:50:21;;;;;;;24.92;13.18;;;;;;;;;;4941878;28;20034;-63
2021/10/18 11:52:50;;;;;;;18.92;10.82;;;;;;;;;;4949154;28;20023;-64
2021/10/18 11:55:17;;;;;;;20.20;12.63;;;;;;;;;;4951263;28;20463;-64
2021/10/18 11:57:43;;;;;;;26.67;15.07;;;;;;;;;;4948020;28;20557;-64
2021/10/18 12:00:09;;;;;;;25.15;14.98;;;;;;;;;;4947830;28;20035;-65
2021/10/18 12:02:36;;;;;;;23.58;13.57;;;;;;;;;;4943079;28;20023;-65
2021/10/18 12:05:01;;;;;;;28.08;14.30;;;;;;;;;;4954379;28;20036;-65
2021/10/18 12:07:39;;;;;;;27.95;15.95;;;;;;;;;;4941027;28;20427;-63
2021/10/18 12:10:13;;;;;;;29.20;15.13;;;;;;;;;;4943906;28;20619;-63
2021/10/18 12:12:38;;;;;;;31.30;17.25;;;;;;;;;;4947092;28;20048;-63
2021/10/18 12:15:04;;;;;;;26.15;14.57;;;;;;;;;;4943439;28;20579;-63
2021/10/18 12:17:30;;;;;;;24.98;14.15;;;;;;;;;;4938469;28;20062;-63
2021/10/18 12:19:55;;;;;;;30.35;16.73;;;;;;;;;;4943724;28;20122;-64
2021/10/18 12:22:21;;;;;;;22.42;13.20;;;;;;;;;;4943883;28;20039;-63
2021/10/18 12:24:58;;;;;;;23.30;12.95;;;;;;;;;;4939720;28;20030;-63
2021/10/18 12:27:27;;;;;;;22.77;12.98;;;;;;;;;;4943412;28;20118;-63
2021/10/18 12:29:52;;;;;;;19.75;11.55;;;;;;;;;;4940612;28;20584;-63
2021/10/18 12:32:18;;;;;;;20.02;12.02;;;;;;;;;;4942793;28;20036;-63
2021/10/18 12:34:43;;;;;;;19.48;11.80;;;;;;;;;;4943908;29;20027;-63
2021/10/18 12:37:09;;;;;;;20.38;11.18;;;;;;;;;;4933161;28;20384;-63
2021/10/18 12:39:41;;;;;;;21.17;12.35;;;;;;;;;;4943926;28;20043;-63
2021/10/18 12:42:07;;;;;;;21.20;12.25;;;;;;;;;;4940822;28;20866;-63
2021/10/18 12:44:36;;;;;;;23.00;11.93;;;;;;;;;;4943812;28;20031;-63
2021/10/18 12:47:08;;;;;;;20.90;10.93;;;;;;;;;;4949837;28;20105;-63
2021/10/18 12:49:33;;;;;;;15.18;8.77;;;;;;;;;;4938395;28;20067;-63
2021/10/18 12:52:05;;;;;;;20.33;11.25;;;;;;;;;;4940931;28;20453;-63
2021/10/18 12:54:40;;;;;;;12.00;7.43;;;;;;;;;;4951875;28;20033;-63
2021/10/18 12:57:10;;;;;;;18.25;12.02;;;;;;;;;;4949694;28;20031;-63
2021/10/18 12:59:36;;;;;;;16.38;10.35;;;;;;;;;;4943986;28;20039;-63
2021/10/18 13:02:22;;;;;;;16.02;9.77;;;;;;;;;;4942971;28;20089;-64
2021/10/18 13:05:00;;;;;;;18.67;11.13;;;;;;;;;;4944295;28;20023;-64
2021/10/18 13:07:25;;;;;;;20.50;10.43;;;;;;;;;;4938105;28;20118;-65
2021/10/18 13:09:52;;;;;;;20.42;13.40;;;;;;;;;;4939154;28;20043;-65
2021/10/18 13:12:17;;;;;;;28.88;16.15;;;;;;;;;;4938143;28;20046;-64
2021/10/18 13:14:42;;;;;;;26.58;16.77;;;;;;;;;;4936539;28;20181;-65
2021/10/18 13:17:08;;;;;;;29.35;16.25;;;;;;;;;;4938786;28;20028;-65
2021/10/18 13:19:33;;;;;;;29.67;17.25;;;;;;;;;;4938789;28;20050;-64
2021/10/18 13:21:58;;;;;;;31.30;17.83;;;;;;;;;;4943261;28;20372;-65
2021/10/18 13:24:23;;;;;;;26.33;16.40;;;;;;;;;;4946568;28;20030;-65
2021/10/18 13:26:48;;;;;;;28.13;16.38;;;;;;;;;;4940913;28;20039;-64
2021/10/18 13:29:14;;;;;;;30.25;18.75;;;;;;;;;;4942099;28;20032;-64
2021/10/18 13:31:39;;;;;;;26.30;16.60;;;;;;;;;;4936429;28;20134;-64
2021/10/18 13:34:04;;;;;;;27.55;16.02;;;;;;;;;;4942387;28;20543;-64
2021/10/18 13:36:29;;;;;;;27.65;17.25;;;;;;;;;;4946623;28;20463;-64
2021/10/18 13:38:55;;;;;;;30.92;16.70;;;;;;;;;;4945036;29;20142;-64
2021/10/18 13:41:20;;;;;;;31.20;18.90;;;;;;;;;;4947125;28;20035;-64
2021/10/18 13:43:45;;;;;;;20.30;12.55;;;;;;;;;;4945541;28;20071;-64
2021/10/18 13:46:10;;;;;;;25.85;15.77;;;;;;;;;;4940498;28;20062;-64
2021/10/18 13:48:37;;;;;;;24.92;15.55;;;;;;;;;;4953699;28;20027;-64
2021/10/18 13:51:02;;;;;;;21.48;15.02;;;;;;;;;;4940439;28;20062;-64
2021/10/18 13:53:27;;;;;;;30.02;16.80;;;;;;;;;;4937988;28;20742;-64
2021/10/18 13:55:52;;;;;;;25.90;15.93;;;;;;;;;;4940666;28;20430;-64
2021/10/18 13:58:18;;;;;;;24.02;16.50;;;;;;;;;;4937293;28;20085;-64
2021/10/18 14:00:43;;;;;;;27.05;15.77;;;;;;;;;;4944217;28;20575;-64
2021/10/18 14:03:10;;;;;;;27.45;18.20;;;;;;;;;;4939550;29;20031;-64
2021/10/18 14:05:35;;;;;;;26.20;16.05;;;;;;;;;;4948644;28;20039;-64
2021/10/18 14:08:01;;;;;;;25.00;15.90;;;;;;;;;;4945476;28;20462;-64
2021/10/18 14:10:26;;;;;;;25.13;15.82;;;;;;;;;;4946555;28;20042;-64
2021/10/18 14:12:51;;;;;;;23.85;16.02;;;;;;;;;;4949499;29;20047;-65
2021/10/18 14:15:17;;;;;;;24.02;15.68;;;;;;;;;;4940809;28;20103;-65
2021/10/18 14:17:42;;;;;;;24.95;17.70;;;;;;;;;;4945793;28;20023;-64
2021/10/18 14:20:07;;;;;;;25.73;16.13;;;;;;;;;;4953788;28;20033;-64
2021/10/18 14:22:33;;;;;;;23.92;15.07;;;;;;;;;;4940738;28;20942;-64
2021/10/18 14:24:58;;;;;;;24.63;15.32;;;;;;;;;;4937336;29;20035;-64
2021/10/18 14:27:23;;;;;;;21.58;14.38;;;;;;;;;;4943482;28;20036;-64
2021/10/18 14:29:48;;;;;;;26.10;16.73;;;;;;;;;;4940550;28;20027;-64
2021/10/18 14:32:13;;;;;;;23.75;15.82;;;;;;;;;;4943511;28;20046;-64
2021/10/18 14:34:39;;;;;;;24.92;16.70;;;;;;;;;;4942825;29;20034;-65
2021/10/18 14:37:04;;;;;;;23.50;15.90;;;;;;;;;;4944859;28;20474;-64
2021/10/18 14:39:29;;;;;;;23.52;15.32;;;;;;;;;;4949396;28;20051;-64
2021/10/18 14:41:54;;;;;;;26.25;15.15;;;;;;;;;;4944983;28;20140;-64
2021/10/18 14:44:20;;;;;;;23.52;14.50;;;;;;;;;;4939566;28;20054;-64
2021/10/18 14:46:45;;;;;;;23.30;15.57;;;;;;;;;;4939366;28;20123;-64
2021/10/18 14:49:10;;;;;;;28.30;16.02;;;;;;;;;;4948051;29;20030;-64
2021/10/18 14:51:38;;;;;;;23.92;14.80;;;;;;;;;;4946701;28;20057;-64
2021/10/18 14:54:06;;;;;;;23.50;16.17;;;;;;;;;;4944286;28;20128;-65
2021/10/18 14:56:31;;;;;;;25.00;16.13;;;;;;;;;;4944217;28;20044;-66
2021/10/18 14:58:56;;;;;;;27.10;16.80;;;;;;;;;;4948706;28;20098;-65
2021/10/18 15:01:22;;;;;;;27.38;16.73;;;;;;;;;;4942781;28;20044;-65
2021/10/18 15:03:47;;;;;;;26.27;15.55;;;;;;;;;;4937912;29;20024;-65
2021/10/18 15:06:12;;;;;;;25.83;16.08;;;;;;;;;;4948288;28;20035;-65
2021/10/18 15:08:38;;;;;;;26.75;16.48;;;;;;;;;;4949084;28;20389;-65
2021/10/18 15:11:03;;;;;;;24.50;14.98;;;;;;;;;;4946101;28;20059;-66
2021/10/18 15:13:29;;;;;;;23.85;16.35;;;;;;;;;;4946614;28;20048;-66
2021/10/18 15:15:54;;;;;;;23.30;14.57;;;;;;;;;;4938851;28;20127;-66
2021/10/18 15:18:19;;;;;;;26.15;15.43;;;;;;;;;;4950085;28;20222;-65
2021/10/18 15:20:44;;;;;;;25.75;15.40;;;;;;;;;;4942331;28;20031;-65
2021/10/18 15:23:11;;;;;;;22.08;14.57;;;;;;;;;;4947700;28;20027;-66